Fallon, NV (89406)

12:50 PM PST on February 09, 2016 (GMT -0800)
East Fallon | | Change Station
CLOSE
Current Station
Personal Weather Station
Location: Fallon, NV
Elevation: 3980 ft
Nearby Weather Stations

Elev 3980 ft 39.48 °N, 118.77 °W | Updated 45 seconds ago

Clear
Clear
61.3 °F
Feels Like 61.3 °F
N
1.7
Wind Variable Wind from NW

Today
High -- | Low -- °F
--% Chance of Precip.
Yesterday
High -- | Low -- °F
Precip. -- in
Pressure 30.32 in
Visibility 10.0 miles
Clouds Few 25000 ft
Dew Point 38 °F
Humidity 42%
Rainfall 0.00 in
Snow Depth Not available.
6:54 AM 5:24 PM
New Moon, 2% visible
METAR KNFL 091956Z 11005KT 10SM FEW250 09/01 A3046 RMK AO2 SLP268 T00940006
Pressure 30.32 in
Visibility 10.0 miles
Clouds Few 25000 ft
Dew Point 38 °F
Humidity 42%
Rainfall 0.00 in
Snow Depth Not available.
6:54 AM 5:24 PM
New Moon, 2% visible
METAR KNFL 091956Z 11005KT 10SM FEW250 09/01 A3046 RMK AO2 SLP268 T00940006

10-Day Weather Forecast

Almanac

Astronomy

Feb. 09, 2016 Rise Set
Actual Time
Civil Twilight
Nautical Twilight
Astronomical Twilight
Moon
Length of Visible Light
Length of Day
Tomorrow will be .
, % of the Moon is Illuminated

Today's Extremes

State Highs State Lows

Community

WunderPhotos

Upload Photos

1,891,683 photos uploaded!

WunderBlog® & News

Nearby

Air Quality

  Air Quality AQ Index Pollutant
Not available.

Snow Depth

Station Depth Elevation

Earthquake Activity

City Distance Mag. Time & Date
Minimum magnitude displayed is 2.5.

Coastal Water Temperatures

Place Temperature

Stations

Nearby Weather Stations

Station Location Temp. Windchill Dew Point Humidity Wind Precip. Elev Updated Type
                   

Watches & Warnings

There are currently no watches in effect.